createdAt,value
2022-08-07T00:02:37.704Z,12.78
2022-08-07T00:06:51.997Z,12.77
2022-08-07T00:12:26.032Z,12.78
2022-08-07T00:16:39.306Z,12.74
2022-08-07T00:21:55.841Z,12.76
2022-08-07T00:26:49.001Z,12.76
2022-08-07T00:31:41.587Z,12.74
2022-08-07T00:36:50.928Z,12.74
2022-08-07T00:41:45.302Z,12.74
2022-08-07T00:51:56.839Z,12.74
2022-08-07T00:56:44.000Z,12.75
2022-08-07T01:01:41.233Z,12.72
2022-08-07T01:06:37.430Z,12.73
2022-08-07T01:12:05.520Z,12.73
2022-08-07T01:16:38.856Z,12.72
2022-08-07T01:21:37.826Z,12.71
2022-08-07T01:31:41.953Z,12.71
2022-08-07T01:41:40.706Z,12.72
2022-08-07T01:46:40.671Z,12.69
2022-08-07T01:56:42.060Z,12.70
2022-08-07T02:06:44.051Z,12.71
2022-08-07T02:11:57.859Z,12.71
2022-08-07T02:21:54.941Z,12.70
2022-08-07T02:26:42.054Z,12.69
2022-08-07T02:36:42.332Z,12.69
2022-08-07T02:41:47.226Z,12.68
2022-08-07T02:46:46.638Z,12.67
2022-08-07T02:51:50.015Z,12.67
2022-08-07T02:56:45.703Z,12.67
2022-08-07T03:01:47.160Z,12.68
2022-08-07T03:07:42.989Z,12.66
2022-08-07T03:11:52.074Z,12.65
2022-08-07T03:17:36.341Z,12.65
2022-08-07T03:21:50.696Z,12.65
2022-08-07T03:26:51.444Z,12.65
2022-08-07T03:33:32.176Z,12.67
2022-08-07T03:36:52.786Z,12.66
2022-08-07T03:41:53.353Z,12.66
2022-08-07T03:47:11.674Z,12.69
2022-08-07T03:52:01.066Z,12.68
2022-08-07T03:56:59.752Z,12.67
2022-08-07T04:01:56.480Z,12.68
2022-08-07T04:06:57.229Z,12.69
2022-08-07T04:12:21.041Z,12.71
2022-08-07T04:16:59.034Z,12.73
2022-08-07T04:22:05.520Z,12.75
2022-08-07T04:27:00.137Z,12.78
2022-08-07T04:32:02.803Z,12.78
2022-08-07T04:37:01.593Z,12.79
2022-08-07T04:42:02.850Z,12.80
2022-08-07T04:47:07.852Z,12.82
2022-08-07T04:52:03.895Z,12.83
2022-08-07T04:58:08.491Z,12.83
2022-08-07T05:02:05.774Z,12.82
2022-08-07T05:07:09.727Z,12.82
2022-08-07T05:12:06.865Z,12.82
2022-08-07T05:17:11.620Z,12.83
2022-08-07T05:22:08.393Z,12.82
2022-08-07T05:27:14.381Z,12.83
2022-08-07T05:32:09.794Z,12.84
2022-08-07T05:37:10.601Z,12.84
2022-08-07T05:42:12.843Z,12.84
2022-08-07T05:47:18.459Z,12.86
2022-08-07T05:52:12.822Z,12.84
2022-08-07T05:57:13.618Z,12.84
2022-08-07T06:02:22.652Z,12.86
2022-08-07T06:07:22.865Z,12.89
2022-08-07T06:12:16.457Z,12.89
2022-08-07T06:17:16.775Z,12.90
2022-08-07T06:22:23.177Z,12.91
2022-08-07T06:27:43.808Z,12.88
2022-08-07T06:32:19.083Z,12.91
2022-08-07T06:37:20.509Z,12.91
2022-08-07T06:42:26.652Z,12.91
2022-08-07T06:47:21.720Z,12.92
2022-08-07T06:54:12.410Z,12.96
2022-08-07T06:57:22.483Z,12.94
2022-08-07T07:07:58.146Z,12.99
2022-08-07T07:12:30.848Z,12.98
2022-08-07T07:17:26.448Z,13.00
2022-08-07T07:22:34.297Z,13.01
2022-08-07T07:28:02.228Z,13.03
2022-08-07T07:32:27.463Z,13.04
2022-08-07T07:42:29.999Z,13.07
2022-08-07T07:47:29.547Z,13.09
2022-08-07T07:52:30.495Z,13.09
2022-08-07T07:57:44.156Z,13.11
2022-08-07T08:02:34.373Z,13.10
2022-08-07T08:07:35.521Z,13.11
2022-08-07T08:17:57.022Z,13.12
2022-08-07T08:22:34.365Z,13.12
2022-08-07T08:27:35.087Z,13.15
2022-08-07T08:38:00.094Z,13.16
2022-08-07T08:41:56.990Z,13.12
2022-08-07T08:46:44.879Z,13.16
2022-08-07T08:51:49.369Z,13.16
2022-08-07T08:56:47.872Z,13.18
2022-08-07T09:01:49.376Z,13.24
2022-08-07T09:06:48.887Z,13.33
2022-08-07T09:11:51.337Z,13.43
2022-08-07T09:16:50.294Z,13.37
2022-08-07T09:21:58.611Z,13.37
2022-08-07T09:26:57.138Z,13.42
2022-08-07T09:31:52.207Z,13.42
2022-08-07T09:36:53.326Z,13.39
2022-08-07T09:41:58.765Z,13.40
2022-08-07T09:47:27.072Z,13.36
2022-08-07T09:52:34.755Z,13.39
2022-08-07T09:56:55.733Z,13.49
2022-08-07T10:01:56.391Z,13.49
2022-08-07T10:06:57.670Z,13.60
2022-08-07T10:12:00.692Z,13.61
2022-08-07T10:16:59.350Z,13.59
2022-08-07T10:22:15.304Z,13.53
2022-08-07T10:26:59.937Z,13.58
2022-08-07T10:32:00.436Z,13.71
2022-08-07T10:37:03.861Z,13.65
2022-08-07T10:42:09.634Z,13.64
2022-08-07T10:47:05.738Z,13.73
2022-08-07T10:52:13.580Z,13.78
2022-08-07T10:57:07.188Z,13.80
2022-08-07T11:02:12.207Z,13.71
2022-08-07T11:07:15.270Z,13.70
2022-08-07T11:12:31.386Z,13.71
2022-08-07T11:17:12.350Z,13.87
2022-08-07T11:22:19.042Z,13.90
2022-08-07T11:27:13.746Z,13.73
2022-08-07T11:32:15.351Z,13.72
2022-08-07T11:46:43.757Z,13.60
2022-08-07T11:51:41.059Z,13.68
2022-08-07T11:56:39.076Z,13.80
2022-08-07T12:01:58.995Z,13.70
2022-08-07T12:06:44.847Z,13.69
2022-08-07T12:11:58.343Z,13.58
2022-08-07T12:16:44.473Z,13.65
2022-08-07T12:21:55.232Z,13.70
2022-08-07T12:26:46.744Z,13.92
2022-08-07T12:31:53.505Z,13.70
2022-08-07T12:36:49.480Z,13.76
2022-08-07T12:41:49.618Z,13.59
2022-08-07T12:46:48.580Z,13.64
2022-08-07T12:51:51.610Z,13.68
2022-08-07T12:56:54.939Z,13.80
2022-08-07T13:01:53.821Z,13.67
2022-08-07T13:07:01.484Z,13.67
2022-08-07T13:12:00.994Z,13.93
2022-08-07T13:16:55.394Z,14.04
2022-08-07T13:21:58.982Z,13.81
2022-08-07T13:26:56.908Z,13.59
2022-08-07T13:31:59.861Z,13.53
2022-08-07T13:36:58.210Z,13.60
2022-08-07T13:42:01.588Z,13.56
2022-08-07T13:47:02.291Z,13.72
2022-08-07T13:52:22.423Z,13.57
2022-08-07T13:57:03.901Z,13.37
2022-08-07T14:02:05.242Z,13.26
2022-08-07T14:07:05.076Z,13.21
2022-08-07T14:12:07.478Z,13.24
2022-08-07T14:17:13.291Z,13.33
2022-08-07T14:22:11.518Z,13.35
2022-08-07T14:27:16.290Z,13.38
2022-08-07T14:32:20.904Z,13.36
2022-08-07T14:37:16.216Z,13.35
2022-08-07T14:42:18.402Z,13.37
2022-08-07T14:47:14.805Z,13.37
2022-08-07T14:52:14.101Z,13.37
2022-08-07T14:57:19.020Z,13.38
2022-08-07T15:02:31.560Z,13.37
2022-08-07T15:07:17.652Z,13.37
2022-08-07T15:12:25.474Z,13.39
2022-08-07T15:17:17.542Z,13.39
2022-08-07T15:22:23.287Z,13.40
2022-08-07T15:27:21.526Z,13.39
2022-08-07T15:32:39.290Z,13.39
2022-08-07T15:37:27.632Z,13.37
2022-08-07T15:42:45.554Z,13.37
2022-08-07T15:47:42.758Z,13.41
2022-08-07T15:52:29.848Z,13.49
2022-08-07T15:57:28.492Z,13.27
2022-08-07T16:02:26.529Z,13.18
2022-08-07T16:07:31.984Z,13.18
2022-08-07T16:12:33.087Z,13.25
2022-08-07T16:18:00.641Z,13.19
2022-08-07T16:22:34.127Z,13.14
2022-08-07T16:27:38.989Z,13.28
2022-08-07T16:32:35.132Z,13.15
2022-08-07T16:38:05.140Z,13.28
2022-08-07T16:42:34.414Z,13.34
2022-08-07T16:47:50.977Z,13.37
2022-08-07T16:52:52.250Z,13.37
2022-08-07T16:58:01.229Z,13.36
2022-08-07T17:02:51.888Z,13.34
2022-08-07T17:07:51.757Z,13.35
2022-08-07T17:12:44.006Z,13.34
2022-08-07T17:17:44.477Z,13.34
2022-08-07T17:22:42.781Z,13.33
2022-08-07T17:27:50.673Z,13.29
2022-08-07T17:32:49.407Z,13.19
2022-08-07T17:38:07.366Z,13.12
2022-08-07T17:42:58.772Z,13.07
2022-08-07T17:47:45.920Z,13.06
2022-08-07T17:52:46.419Z,13.03
2022-08-07T17:57:56.881Z,13.01
2022-08-07T18:02:53.957Z,13.00
2022-08-07T18:07:56.460Z,12.99
2022-08-07T18:12:51.932Z,12.99
2022-08-07T18:18:33.312Z,12.98
2022-08-07T18:22:54.220Z,12.95
2022-08-07T18:27:54.064Z,12.94
2022-08-07T18:32:54.685Z,12.93
2022-08-07T18:38:54.226Z,12.91
2022-08-07T18:42:58.539Z,12.92
2022-08-07T18:48:04.225Z,12.91
2022-08-07T18:53:04.507Z,12.89
2022-08-07T18:58:00.681Z,12.92
2022-08-07T19:03:11.716Z,12.89
2022-08-07T19:08:03.881Z,12.89
2022-08-07T19:13:09.986Z,12.90
2022-08-07T19:18:03.667Z,12.89
2022-08-07T19:23:18.167Z,12.89
2022-08-07T19:28:58.850Z,12.88
2022-08-07T19:33:13.013Z,12.90
2022-08-07T19:38:15.060Z,12.89
2022-08-07T19:43:21.426Z,12.88
2022-08-07T19:48:18.538Z,12.87
2022-08-07T19:54:30.814Z,12.88
2022-08-07T19:58:13.892Z,12.87
2022-08-07T20:03:34.350Z,12.87
2022-08-07T20:08:13.895Z,12.85
2022-08-07T20:13:22.624Z,12.89
2022-08-07T20:18:32.104Z,12.85
2022-08-07T20:23:23.479Z,12.84
2022-08-07T20:28:19.226Z,12.85
2022-08-07T20:33:24.658Z,12.84
2022-08-07T20:38:21.832Z,12.84
2022-08-07T20:43:25.100Z,12.86
2022-08-07T20:48:25.789Z,12.83
2022-08-07T20:53:26.075Z,12.83
2022-08-07T20:58:40.569Z,12.83
2022-08-07T21:03:29.166Z,12.83
2022-08-07T21:08:32.448Z,12.82
2022-08-07T21:13:44.196Z,12.83
2022-08-07T21:18:33.238Z,12.83
2022-08-07T21:23:33.374Z,12.85
2022-08-07T21:26:39.529Z,12.80
2022-08-07T21:31:50.739Z,12.81
2022-08-07T21:36:40.032Z,12.83
2022-08-07T21:41:52.008Z,12.81
2022-08-07T21:46:41.043Z,12.83
2022-08-07T21:51:51.559Z,12.80
2022-08-07T21:56:47.856Z,12.82
2022-08-07T22:02:07.824Z,12.79
2022-08-07T22:06:45.159Z,12.83
2022-08-07T22:11:53.154Z,12.79
2022-08-07T22:16:50.332Z,12.79
2022-08-07T22:22:02.958Z,12.79
2022-08-07T22:26:46.914Z,12.78
2022-08-07T22:31:59.862Z,12.79
2022-08-07T22:36:48.475Z,12.80
2022-08-07T22:42:02.793Z,12.81
2022-08-07T22:47:04.557Z,12.78
2022-08-07T22:51:51.906Z,12.81
2022-08-07T22:56:51.332Z,12.78
2022-08-07T23:01:52.136Z,12.78
2022-08-07T23:06:55.543Z,12.76
2022-08-07T23:11:59.210Z,12.76
2022-08-07T23:17:08.423Z,12.75
2022-08-07T23:21:57.705Z,12.78
2022-08-07T23:26:58.279Z,12.76
2022-08-07T23:32:50.421Z,12.75
2022-08-07T23:37:19.720Z,12.74
2022-08-07T23:42:01.978Z,12.74
2022-08-07T23:47:01.338Z,12.74
2022-08-07T23:52:59.137Z,12.73
2022-08-07T23:57:03.198Z,12.72
